createdAt,value
2022-08-30T00:02:20.966Z,54
2022-08-30T00:17:20.719Z,54
2022-08-30T00:32:20.689Z,55
2022-08-30T00:47:20.663Z,56
2022-08-30T01:02:20.720Z,56
2022-08-30T01:17:21.988Z,57
2022-08-30T01:32:21.306Z,57
2022-08-30T02:02:20.528Z,59
2022-08-30T02:17:20.503Z,59
2022-08-30T02:32:20.500Z,59
2022-08-30T02:47:20.446Z,60
2022-08-30T03:02:20.413Z,61
2022-08-30T03:17:20.390Z,62
2022-08-30T03:32:20.462Z,63
2022-08-30T03:47:20.341Z,64
2022-08-30T04:17:20.318Z,64
2022-08-30T04:32:20.291Z,65
2022-08-30T04:47:20.240Z,63
2022-08-30T05:02:20.299Z,63
2022-08-30T05:17:20.205Z,64
2022-08-30T05:32:20.183Z,64
2022-08-30T05:47:20.139Z,66
2022-08-30T06:02:20.165Z,66
2022-08-30T06:17:20.099Z,64
2022-08-30T06:32:20.075Z,64
2022-08-30T06:47:20.045Z,63
2022-08-30T07:02:20.021Z,63
2022-08-30T07:17:19.987Z,62
2022-08-30T07:32:19.970Z,58
2022-08-30T07:47:19.933Z,53
2022-08-30T08:02:20.005Z,50
2022-08-30T08:17:19.868Z,49
2022-08-30T08:32:19.871Z,44
2022-08-30T08:47:19.826Z,45
2022-08-30T09:02:19.810Z,46
2022-08-30T09:17:19.772Z,45
2022-08-30T09:32:25.083Z,44
2022-08-30T09:47:23.912Z,43
2022-08-30T10:02:19.720Z,42
2022-08-30T10:17:19.648Z,41
2022-08-30T10:32:19.639Z,41
2022-08-30T11:02:19.586Z,41
2022-08-30T11:17:19.567Z,42
2022-08-30T11:32:19.521Z,42
2022-08-30T11:47:19.518Z,45
2022-08-30T12:02:19.539Z,44
2022-08-30T12:17:19.448Z,44
2022-08-30T12:32:19.421Z,44
2022-08-30T12:47:19.362Z,51
2022-08-30T13:02:20.568Z,53
2022-08-30T13:17:19.302Z,56
2022-08-30T13:32:19.310Z,63
2022-08-30T13:47:35.441Z,67
2022-08-30T14:02:19.226Z,71
2022-08-30T14:17:19.237Z,70
2022-08-30T14:32:19.172Z,68
2022-08-30T14:47:19.141Z,68
2022-08-30T15:02:19.116Z,69
2022-08-30T15:17:19.109Z,69
2022-08-30T15:32:19.099Z,73
2022-08-30T15:47:19.049Z,78
2022-08-30T16:02:19.085Z,81
2022-08-30T16:17:18.982Z,83
2022-08-30T16:32:18.997Z,84
2022-08-30T16:47:19.034Z,85
2022-08-30T17:02:18.988Z,85
2022-08-30T17:17:19.314Z,85
2022-08-30T17:32:18.873Z,86
2022-08-30T17:47:19.231Z,86
2022-08-30T18:02:21.410Z,87
2022-08-30T18:17:18.775Z,89
2022-08-30T18:32:18.781Z,89
2022-08-30T18:47:18.740Z,90
2022-08-30T19:02:18.761Z,91
2022-08-30T19:17:18.674Z,91
2022-08-30T19:32:18.722Z,92
2022-08-30T19:47:18.643Z,92
2022-08-30T20:02:18.716Z,92
2022-08-30T20:17:18.575Z,92
2022-08-30T20:32:18.581Z,92
2022-08-30T20:47:18.534Z,92
2022-08-30T21:02:18.618Z,93
2022-08-30T21:17:18.481Z,93
2022-08-30T21:32:18.446Z,93
2022-08-30T21:47:23.839Z,93
2022-08-30T22:02:18.449Z,93
2022-08-30T22:17:18.376Z,94
2022-08-30T22:32:18.399Z,94
2022-08-30T22:47:18.325Z,94
2022-08-30T23:02:18.379Z,94
2022-08-30T23:17:18.280Z,95
2022-08-30T23:32:18.250Z,95
2022-08-30T23:47:18.232Z,95
